Time;durP1;ratioP1;P1;durP2;ratioP2;P2;SDS_P1;SDS_P2;PMS_P1;PMS_P2;Temp;Humidity;BMP_temperature;BMP_pressure;BME280_temperature;BME280_humidity;BME280_pressure;Samples;Min_cycle;Max_cycle;Signal;HPM_P1;HPM_P2
2021/03/19 00:10:02;;;;;;;33.78;12.20;;;4.00;99.90;;;;;;5084407;28;20340;-70
2021/03/19 00:12:28;;;;;;;27.67;11.00;;;4.20;99.90;;;;;;5084708;28;20080;-71
2021/03/19 00:14:54;;;;;;;22.15;9.57;;;4.20;99.90;;;;;;5082184;28;20448;-72
2021/03/19 00:17:20;;;;;;;20.52;8.40;;;4.30;99.90;;;;;;5083347;28;20028;-73
2021/03/19 00:19:48;;;;;;;19.13;8.32;;;4.40;99.90;;;;;;5084142;28;20509;-72
2021/03/19 00:22:16;;;;;;;13.98;7.07;;;4.40;99.90;;;;;;5083560;28;20024;-73
2021/03/19 00:24:44;;;;;;;11.75;5.97;;;4.50;99.90;;;;;;5083536;28;20024;-73
2021/03/19 00:27:11;;;;;;;18.33;8.35;;;4.50;99.90;;;;;;5082891;28;20037;-74
2021/03/19 00:29:38;;;;;;;12.60;6.55;;;4.40;99.90;;;;;;5083376;28;20028;-74
2021/03/19 00:32:04;;;;;;;15.98;7.15;;;4.30;99.90;;;;;;5083202;28;20020;-74
2021/03/19 00:34:30;;;;;;;18.00;7.88;;;4.40;99.90;;;;;;5083641;28;20025;-74
2021/03/19 00:36:56;;;;;;;13.63;7.03;;;4.50;99.90;;;;;;5083051;28;20486;-73
2021/03/19 00:39:22;;;;;;;12.27;6.72;;;4.40;99.90;;;;;;5083303;28;20020;-72
2021/03/19 00:41:48;;;;;;;14.98;6.97;;;4.50;99.90;;;;;;5083914;28;20529;-72
2021/03/19 00:44:15;;;;;;;14.02;6.53;;;4.40;99.90;;;;;;5083031;28;20479;-73
2021/03/19 00:46:41;;;;;;;16.27;7.75;;;4.40;99.90;;;;;;5083260;28;20792;-74
2021/03/19 00:49:06;;;;;;;14.23;6.82;;;4.30;99.90;;;;;;5082917;28;20024;-74
2021/03/19 00:51:34;;;;;;;14.38;6.95;;;4.30;99.90;;;;;;5083238;28;20393;-74
2021/03/19 00:54:01;;;;;;;12.07;5.82;;;4.30;99.90;;;;;;5082728;28;20035;-74
2021/03/19 00:56:27;;;;;;;13.60;6.40;;;4.30;99.90;;;;;;5082940;28;20028;-74
2021/03/19 00:58:53;;;;;;;10.32;5.68;;;4.40;99.90;;;;;;5082385;28;20402;-74
2021/03/19 01:01:21;;;;;;;10.80;5.63;;;4.40;99.90;;;;;;5083854;28;20062;-74
2021/03/19 01:03:48;;;;;;;10.00;5.70;;;4.30;99.90;;;;;;5083663;28;20024;-73
2021/03/19 01:06:17;;;;;;;8.13;4.60;;;4.30;99.90;;;;;;5082539;28;20410;-73
2021/03/19 01:08:43;;;;;;;10.00;4.75;;;4.30;99.90;;;;;;5081940;28;20036;-72
2021/03/19 01:11:09;;;;;;;9.40;5.15;;;4.40;99.90;;;;;;5082293;28;20035;-73
2021/03/19 01:13:34;;;;;;;8.45;4.32;;;4.40;99.90;;;;;;5082618;28;20099;-73
2021/03/19 01:16:01;;;;;;;8.23;4.50;;;4.40;99.90;;;;;;5082723;28;20356;-73
2021/03/19 01:18:30;;;;;;;8.80;4.75;;;4.30;99.90;;;;;;5082696;28;20220;-74
2021/03/19 01:20:56;;;;;;;8.68;4.45;;;4.20;99.90;;;;;;5071516;28;20029;-73
2021/03/19 01:23:22;;;;;;;8.77;4.47;;;4.30;99.90;;;;;;5069094;28;20090;-74
2021/03/19 01:25:48;;;;;;;6.47;4.32;;;4.30;99.90;;;;;;5069752;28;20098;-75
2021/03/19 01:28:16;;;;;;;8.40;4.40;;;4.20;99.90;;;;;;5068475;28;20024;-75
2021/03/19 01:30:43;;;;;;;9.68;4.57;;;4.20;99.90;;;;;;5068992;28;20080;-74
2021/03/19 01:33:10;;;;;;;10.23;5.15;;;4.30;99.90;;;;;;5068867;28;20017;-74
2021/03/19 01:35:39;;;;;;;8.77;5.15;;;4.40;99.90;;;;;;5069070;28;20020;-73
2021/03/19 01:38:06;;;;;;;7.80;4.05;;;4.50;99.90;;;;;;5068403;28;20048;-73
2021/03/19 01:40:36;;;;;;;7.65;4.50;;;4.40;99.90;;;;;;5069105;28;20104;-73
2021/03/19 01:43:08;;;;;;;7.32;4.95;;;4.40;99.90;;;;;;5068209;28;20103;-73
2021/03/19 01:45:58;;;;;;;7.95;4.85;;;4.30;99.90;;;;;;5068777;28;20035;-74
2021/03/19 01:49:01;;;;;;;7.10;4.63;;;4.40;99.90;;;;;;5068457;28;20021;-74
2021/03/19 01:52:05;;;;;;;7.50;4.53;;;4.40;99.90;;;;;;5068789;28;20048;-75
2021/03/19 01:55:10;;;;;;;7.07;4.57;;;4.50;99.90;;;;;;5068783;28;20016;-74
2021/03/19 01:58:14;;;;;;;7.88;4.95;;;4.60;99.90;;;;;;5068293;28;20487;-74
2021/03/19 02:01:18;;;;;;;8.73;4.63;;;4.50;99.90;;;;;;5068216;28;20035;-74
2021/03/19 02:04:21;;;;;;;6.70;4.22;;;4.50;99.90;;;;;;5068420;28;20475;-73
2021/03/19 02:07:24;;;;;;;5.90;3.75;;;4.30;99.90;;;;;;5068935;28;20699;-73
2021/03/19 02:10:27;;;;;;;6.60;4.22;;;4.30;99.90;;;;;;5068009;28;20107;-73
2021/03/19 02:13:31;;;;;;;6.88;3.70;;;4.40;99.90;;;;;;5066438;28;20025;-74
2021/03/19 02:16:34;;;;;;;7.38;4.45;;;4.40;99.90;;;;;;5068178;28;20090;-74
2021/03/19 02:19:37;;;;;;;7.07;4.40;;;4.50;99.90;;;;;;5066100;28;20107;-73
2021/03/19 02:22:40;;;;;;;8.55;4.43;;;4.50;99.90;;;;;;5067794;28;20029;-74
2021/03/19 02:25:43;;;;;;;7.53;4.30;;;4.60;99.90;;;;;;5067435;28;20592;-74
2021/03/19 02:28:48;;;;;;;5.97;4.13;;;4.50;99.90;;;;;;5066848;28;20024;-75
2021/03/19 02:31:14;;;;;;;6.45;4.32;;;4.40;99.90;;;;;;5066868;28;20070;-74
2021/03/19 02:33:57;;;;;;;7.10;4.03;;;4.40;99.90;;;;;;5067559;28;20514;-73
2021/03/19 02:36:26;;;;;;;6.70;3.90;;;4.50;99.90;;;;;;5067552;28;20502;-73
2021/03/19 02:38:52;;;;;;;5.70;3.70;;;4.40;99.90;;;;;;5067289;28;20523;-73
2021/03/19 02:41:18;;;;;;;6.97;3.88;;;4.40;99.90;;;;;;5067611;28;20025;-73
2021/03/19 02:43:44;;;;;;;6.13;3.72;;;4.40;99.90;;;;;;5068013;28;20546;-73
2021/03/19 02:46:10;;;;;;;6.32;3.83;;;4.40;99.90;;;;;;5067208;28;20029;-73
2021/03/19 02:48:37;;;;;;;6.03;3.60;;;4.40;99.90;;;;;;5066743;28;20036;-74
2021/03/19 02:51:04;;;;;;;8.93;4.57;;;4.40;99.90;;;;;;5066228;28;20506;-74
2021/03/19 02:53:32;;;;;;;5.72;3.63;;;4.40;99.90;;;;;;5065731;28;20479;-73
2021/03/19 02:56:01;;;;;;;5.75;3.50;;;4.30;99.90;;;;;;5066855;28;20391;-74
2021/03/19 02:58:27;;;;;;;8.57;4.35;;;4.30;99.90;;;;;;5067158;28;20031;-74
2021/03/19 03:00:53;;;;;;;8.18;4.22;;;4.30;99.90;;;;;;5066850;28;20494;-73
2021/03/19 03:03:19;;;;;;;8.85;5.03;;;4.40;99.90;;;;;;5066834;28;20529;-74
2021/03/19 03:05:47;;;;;;;6.10;4.07;;;4.30;99.90;;;;;;5067571;28;20516;-72
2021/03/19 03:08:17;;;;;;;6.20;3.95;;;4.30;99.90;;;;;;5066269;28;20037;-73
2021/03/19 03:10:47;;;;;;;6.82;4.05;;;4.30;99.90;;;;;;5067752;28;20021;-73
2021/03/19 03:13:16;;;;;;;6.55;3.97;;;4.30;99.90;;;;;;5067255;28;20495;-73
2021/03/19 03:15:43;;;;;;;7.90;5.10;;;4.30;99.90;;;;;;5067043;28;20020;-73
2021/03/19 03:18:10;;;;;;;6.68;3.97;;;4.30;99.90;;;;;;5065930;28;20025;-74
2021/03/19 03:20:49;;;;;;;6.32;4.03;;;4.30;99.90;;;;;;5066917;28;20017;-73
2021/03/19 03:23:18;;;;;;;6.47;4.03;;;4.30;99.90;;;;;;5066896;28;20445;-74
2021/03/19 03:25:44;;;;;;;7.90;4.40;;;4.10;99.90;;;;;;5067381;28;20107;-74
2021/03/19 03:28:11;;;;;;;6.88;4.03;;;4.20;99.90;;;;;;5065836;28;20024;-75
2021/03/19 03:30:41;;;;;;;8.20;4.25;;;4.20;99.90;;;;;;5065432;28;20512;-74
2021/03/19 03:33:08;;;;;;;6.93;4.63;;;4.20;99.90;;;;;;5066395;28;20617;-73
2021/03/19 03:35:36;;;;;;;8.25;4.45;;;4.10;99.90;;;;;;5066839;28;20212;-73
2021/03/19 03:38:04;;;;;;;8.43;5.03;;;4.00;99.90;;;;;;5065933;28;20020;-73
2021/03/19 03:40:55;;;;;;;8.10;4.43;;;4.20;99.90;;;;;;5066726;28;20106;-73
2021/03/19 03:43:22;;;;;;;10.48;4.68;;;4.20;99.90;;;;;;5066288;28;20101;-73
2021/03/19 03:45:48;;;;;;;8.60;4.88;;;4.10;99.90;;;;;;5066560;28;20021;-75
2021/03/19 03:48:17;;;;;;;10.45;5.50;;;4.20;99.90;;;;;;5066558;28;20027;-75
2021/03/19 03:50:44;;;;;;;9.40;5.45;;;4.30;99.90;;;;;;5067155;28;20154;-75
2021/03/19 03:53:10;;;;;;;9.00;5.78;;;4.30;99.90;;;;;;5065860;28;20031;-73
2021/03/19 03:55:39;;;;;;;14.05;7.32;;;4.30;99.90;;;;;;5066417;28;20017;-73
2021/03/19 03:58:08;;;;;;;10.40;6.35;;;4.20;99.90;;;;;;5065617;28;20024;-72
2021/03/19 04:00:37;;;;;;;13.05;6.55;;;4.20;99.90;;;;;;5066420;28;20029;-75
2021/03/19 04:03:04;;;;;;;10.38;6.18;;;4.10;99.90;;;;;;5066186;28;20114;-74
2021/03/19 04:05:38;;;;;;;9.57;6.32;;;4.10;99.90;;;;;;5066201;28;20103;-74
2021/03/19 04:08:06;;;;;;;10.68;7.32;;;4.10;99.90;;;;;;5065218;28;20040;-76
2021/03/19 04:10:34;;;;;;;12.60;7.07;;;4.10;99.90;;;;;;5064127;28;20159;-73
2021/03/19 04:13:00;;;;;;;11.65;6.88;;;4.30;99.90;;;;;;5066463;28;20067;-74
2021/03/19 04:15:29;;;;;;;13.57;7.20;;;4.50;99.90;;;;;;5066209;28;20024;-74
2021/03/19 04:18:02;;;;;;;19.40;9.57;;;4.60;99.90;;;;;;5065231;28;20085;-75
2021/03/19 04:20:30;;;;;;;19.50;10.30;;;4.70;99.90;;;;;;5066398;28;20117;-75
2021/03/19 04:22:57;;;;;;;17.90;8.65;;;4.70;99.90;;;;;;5066294;28;20020;-74
2021/03/19 04:25:24;;;;;;;15.80;7.63;;;4.60;99.90;;;;;;5065781;28;20042;-74
2021/03/19 04:27:56;;;;;;;12.95;7.38;;;4.50;99.90;;;;;;5064830;28;20025;-74
2021/03/19 04:30:26;;;;;;;12.95;8.25;;;4.40;99.90;;;;;;5065939;28;20052;-74
2021/03/19 04:32:53;;;;;;;10.85;7.07;;;4.40;99.90;;;;;;5065875;28;20445;-74
2021/03/19 04:35:23;;;;;;;11.90;7.05;;;4.50;99.90;;;;;;5065741;28;20635;-74
2021/03/19 04:37:51;;;;;;;12.48;7.43;;;4.40;99.90;;;;;;5066085;28;20032;-73
2021/03/19 04:40:19;;;;;;;10.95;6.72;;;4.30;99.90;;;;;;5065903;28;20104;-73
2021/03/19 04:42:47;;;;;;;11.15;7.22;;;4.40;99.90;;;;;;5065982;28;20056;-73
2021/03/19 04:45:14;;;;;;;9.57;6.47;;;4.40;99.90;;;;;;5065835;28;20025;-74
2021/03/19 04:47:40;;;;;;;10.65;6.38;;;4.40;99.90;;;;;;5064290;28;20021;-73
2021/03/19 04:50:07;;;;;;;9.32;6.13;;;4.30;99.90;;;;;;5065501;28;20028;-75
2021/03/19 04:52:33;;;;;;;11.07;5.95;;;4.30;99.90;;;;;;5065871;28;20024;-74
2021/03/19 04:55:01;;;;;;;9.15;5.65;;;4.30;99.90;;;;;;5066645;28;20047;-74
2021/03/19 04:57:27;;;;;;;10.07;5.80;;;4.30;99.90;;;;;;5070362;28;20049;-73
2021/03/19 04:59:53;;;;;;;10.88;5.80;;;4.30;99.90;;;;;;5069280;28;20028;-72
2021/03/19 05:02:40;;;;;;;10.68;6.03;;;4.20;99.90;;;;;;5069420;28;20024;-72
2021/03/19 05:05:09;;;;;;;13.07;5.53;;;4.20;99.90;;;;;;5056581;28;20025;-72
2021/03/19 05:07:34;;;;;;;10.10;6.32;;;4.20;99.90;;;;;;5070678;28;20028;-72
2021/03/19 05:10:01;;;;;;;8.20;5.57;;;4.20;99.90;;;;;;5068785;28;20048;-72
2021/03/19 05:12:26;;;;;;;9.43;5.80;;;4.40;99.90;;;;;;5069160;28;20013;-72
2021/03/19 05:14:52;;;;;;;31.75;13.18;;;4.30;99.90;;;;;;5061065;28;20183;-74
2021/03/19 05:17:19;;;;;;;64.70;25.05;;;4.20;99.90;;;;;;5050569;28;20017;-73
2021/03/19 05:19:46;;;;;;;45.65;17.95;;;4.30;99.90;;;;;;5050392;28;20021;-74
2021/03/19 05:22:14;;;;;;;71.63;26.08;;;4.30;99.90;;;;;;5050148;28;20463;-74
2021/03/19 05:24:41;;;;;;;52.70;19.13;;;4.30;99.90;;;;;;5050636;28;20053;-75
2021/03/19 05:27:09;;;;;;;56.47;22.35;;;4.30;99.90;;;;;;5062823;28;20035;-76
2021/03/19 05:29:37;;;;;;;58.67;22.85;;;4.30;99.90;;;;;;5069504;28;20028;-75
2021/03/19 05:32:04;;;;;;;53.35;21.30;;;4.30;99.90;;;;;;5060606;28;20104;-74
2021/03/19 05:34:32;;;;;;;43.10;17.05;;;4.20;99.90;;;;;;5068664;28;20067;-75
2021/03/19 05:37:00;;;;;;;36.65;15.38;;;4.20;99.90;;;;;;5069058;28;20017;-73
2021/03/19 05:39:28;;;;;;;32.60;14.43;;;4.20;99.90;;;;;;5050680;28;20375;-71
2021/03/19 05:41:55;;;;;;;29.92;12.57;;;4.20;99.90;;;;;;5054141;28;20029;-71
2021/03/19 05:44:23;;;;;;;27.40;12.10;;;4.30;99.90;;;;;;5068732;28;20072;-74
2021/03/19 05:47:05;;;;;;;35.88;14.95;;;4.30;99.90;;;;;;5049819;28;20395;-73
2021/03/19 05:49:33;;;;;;;66.05;28.67;;;4.30;99.90;;;;;;5048827;28;20059;-75
2021/03/19 05:52:23;;;;;;;56.42;25.92;;;4.30;99.90;;;;;;5049019;28;20430;-73
2021/03/19 05:54:50;;;;;;;49.45;21.42;;;4.30;99.90;;;;;;5048491;28;20029;-73
2021/03/19 05:57:25;;;;;;;40.85;18.45;;;4.20;99.90;;;;;;5047995;28;20013;-74
2021/03/19 05:59:55;;;;;;;27.75;13.65;;;4.20;99.90;;;;;;5048653;28;20484;-74
2021/03/19 06:02:28;;;;;;;21.25;10.50;;;4.10;99.90;;;;;;5048432;28;20556;-73
2021/03/19 06:05:09;;;;;;;17.15;9.35;;;4.10;99.90;;;;;;5048123;28;20502;-73
2021/03/19 06:07:41;;;;;;;16.80;9.05;;;4.00;99.90;;;;;;5048179;28;20025;-71
2021/03/19 06:10:18;;;;;;;12.35;7.03;;;3.90;99.90;;;;;;5063148;28;20020;-73
2021/03/19 06:12:48;;;;;;;12.30;6.55;;;3.80;99.90;;;;;;5068585;28;20391;-73
2021/03/19 06:15:38;;;;;;;14.02;7.63;;;3.80;99.90;;;;;;5066768;28;20460;-74
2021/03/19 06:18:40;;;;;;;32.78;15.82;;;3.70;99.90;;;;;;5067479;28;20017;-73
2021/03/19 06:21:10;;;;;;;35.03;16.67;;;3.70;99.90;;;;;;5065022;28;20021;-73
2021/03/19 06:23:39;;;;;;;36.03;17.38;;;3.60;99.90;;;;;;5067407;28;20028;-74
2021/03/19 06:26:20;;;;;;;29.13;14.52;;;3.60;99.90;;;;;;5066598;28;20126;-74
2021/03/19 06:28:50;;;;;;;25.42;12.65;;;3.60;99.90;;;;;;5067722;28;20024;-75
2021/03/19 06:31:28;;;;;;;28.88;13.43;;;3.60;99.90;;;;;;5067558;28;20032;-74
2021/03/19 06:34:24;;;;;;;20.85;10.85;;;3.60;99.90;;;;;;5067347;28;20576;-74
2021/03/19 06:36:59;;;;;;;16.83;9.32;;;3.40;99.90;;;;;;5067505;28;20043;-73
2021/03/19 06:39:49;;;;;;;17.63;9.80;;;3.40;99.90;;;;;;5068167;28;20016;-74
2021/03/19 06:42:18;;;;;;;14.48;8.00;;;3.40;99.90;;;;;;5066603;28;20091;-73
2021/03/19 06:45:03;;;;;;;10.55;7.03;;;3.50;99.90;;;;;;5067107;28;20096;-73
2021/03/19 06:47:42;;;;;;;9.77;6.45;;;3.80;99.90;;;;;;5066043;28;20024;-75
2021/03/19 06:50:32;;;;;;;11.23;7.00;;;3.90;99.90;;;;;;5067092;28;20025;-75
2021/03/19 06:53:13;;;;;;;10.85;6.72;;;4.00;99.90;;;;;;5065525;28;20411;-74
2021/03/19 06:55:45;;;;;;;10.25;6.35;;;4.00;99.90;;;;;;5057929;28;20020;-73
2021/03/19 06:58:11;;;;;;;14.27;7.30;;;4.00;99.90;;;;;;5067348;28;20065;-74
2021/03/19 07:00:41;;;;;;;10.35;6.78;;;4.10;99.90;;;;;;5052463;28;20452;-74
2021/03/19 07:03:32;;;;;;;10.27;7.57;;;4.00;99.90;;;;;;5059033;28;20598;-74
2021/03/19 07:06:10;;;;;;;9.65;6.70;;;3.80;99.90;;;;;;5047721;28;20032;-73
2021/03/19 07:08:51;;;;;;;11.65;6.72;;;3.80;99.90;;;;;;5058115;28;20016;-73
2021/03/19 07:11:32;;;;;;;10.95;7.47;;;3.70;99.90;;;;;;5053275;28;20411;-73
2021/03/19 07:14:33;;;;;;;11.52;8.02;;;3.60;99.90;;;;;;5066278;28;20677;-72
2021/03/19 07:17:25;;;;;;;12.45;7.25;;;3.40;99.90;;;;;;5059543;28;20025;-73
2021/03/19 07:20:21;;;;;;;10.00;6.47;;;3.50;99.90;;;;;;5053844;28;20028;-73
2021/03/19 07:23:13;;;;;;;10.90;7.00;;;3.80;99.90;;;;;;5062398;28;20058;-73
2021/03/19 07:26:05;;;;;;;10.23;7.05;;;3.70;99.90;;;;;;5066163;28;20033;-74
2021/03/19 07:28:34;;;;;;;8.50;6.30;;;3.70;99.90;;;;;;5053643;28;20112;-74
2021/03/19 07:31:33;;;;;;;12.27;7.00;;;4.00;99.90;;;;;;5047894;28;20017;-75
2021/03/19 07:34:18;;;;;;;10.00;6.68;;;3.70;99.90;;;;;;5053010;28;20020;-75
2021/03/19 07:36:49;;;;;;;10.00;6.43;;;3.70;99.90;;;;;;5066900;28;20029;-73
2021/03/19 07:39:39;;;;;;;8.77;5.35;;;4.00;99.90;;;;;;5066500;28;20028;-74
2021/03/19 07:42:35;;;;;;;9.50;5.80;;;4.20;99.90;;;;;;5066208;28;20028;-73
2021/03/19 07:45:32;;;;;;;7.30;4.75;;;4.40;99.90;;;;;;5066053;28;20025;-74
2021/03/19 07:48:17;;;;;;;8.75;4.65;;;4.40;99.90;;;;;;5066572;28;20024;-75
2021/03/19 07:51:01;;;;;;;;;;;4.20;99.90;;;;;;5067031;28;20024;-75
2021/03/19 07:53:50;;;;;;;9.80;5.97;;;4.20;99.90;;;;;;5067218;28;19911;-75
2021/03/19 07:56:38;;;;;;;14.43;7.70;;;4.10;99.90;;;;;;5066205;28;20037;-75
2021/03/19 07:59:32;;;;;;;9.98;6.85;;;3.60;99.90;;;;;;5065843;28;20380;-74
2021/03/19 08:02:32;;;;;;;9.82;6.38;;;4.00;99.90;;;;;;5062829;28;20481;-72
2021/03/19 08:05:15;;;;;;;8.95;5.63;;;4.30;99.90;;;;;;5052708;28;20029;-74
2021/03/19 08:07:48;;;;;;;8.13;5.50;;;4.20;99.90;;;;;;5065957;28;20024;-74
2021/03/19 08:10:28;;;;;;;10.02;5.95;;;4.30;99.90;;;;;;5058683;28;20423;-73
2021/03/19 08:13:18;;;;;;;10.27;6.03;;;4.30;99.90;;;;;;5066121;28;20032;-74
2021/03/19 08:16:06;;;;;;;9.57;5.65;;;4.40;99.90;;;;;;5045155;28;20029;-74
2021/03/19 08:18:51;;;;;;;8.43;4.95;;;4.50;99.90;;;;;;5051163;28;20032;-73
2021/03/19 08:21:30;;;;;;;7.63;4.50;;;4.50;99.90;;;;;;5070004;28;20020;-74
2021/03/19 08:24:10;;;;;;;6.78;4.75;;;4.50;99.90;;;;;;5071083;28;20024;-75
2021/03/19 08:26:48;;;;;;;7.25;4.45;;;4.50;99.90;;;;;;5066762;28;20487;-74
2021/03/19 08:29:41;;;;;;;6.38;4.15;;;4.70;99.90;;;;;;5066947;28;20063;-74
2021/03/19 08:32:16;;;;;;;4.55;3.47;;;4.90;99.90;;;;;;5070984;28;20494;-75
2021/03/19 08:34:57;;;;;;;7.47;4.25;;;4.90;99.90;;;;;;5071328;28;20021;-75
2021/03/19 08:37:44;;;;;;;5.93;3.88;;;4.90;99.90;;;;;;5060216;28;20446;-74
2021/03/19 08:40:41;;;;;;;5.68;3.75;;;5.00;99.90;;;;;;5061708;28;20050;-73
2021/03/19 08:43:23;;;;;;;7.22;4.13;;;5.00;99.90;;;;;;5065151;28;20399;-73
2021/03/19 08:46:00;;;;;;;4.75;3.55;;;4.90;99.90;;;;;;5053278;28;20052;-75
2021/03/19 08:48:25;;;;;;;5.47;4.00;;;4.90;99.90;;;;;;5069825;28;20455;-74
2021/03/19 08:50:51;;;;;;;4.57;3.00;;;5.10;99.90;;;;;;5058652;28;20082;-74
2021/03/19 08:53:20;;;;;;;4.82;3.13;;;5.00;99.90;;;;;;5056276;28;20425;-74
2021/03/19 08:56:04;;;;;;;6.18;4.50;;;5.10;99.90;;;;;;5076401;28;20020;-73
2021/03/19 08:58:30;;;;;;;5.50;3.58;;;4.90;99.90;;;;;;5057626;28;20391;-75
2021/03/19 09:01:05;;;;;;;5.80;2.92;;;5.20;99.90;;;;;;5067448;28;20024;-76
2021/03/19 09:03:39;;;;;;;4.07;3.10;;;5.40;99.90;;;;;;5052470;28;20025;-75
2021/03/19 09:06:07;;;;;;;3.72;2.70;;;5.60;99.90;;;;;;5052006;28;20029;-74
2021/03/19 09:08:51;;;;;;;4.15;2.42;;;5.60;99.90;;;;;;5054703;28;20037;-73
2021/03/19 09:11:23;;;;;;;2.95;2.60;;;5.60;99.90;;;;;;5050889;28;20020;-73
2021/03/19 09:14:00;;;;;;;5.28;2.80;;;5.60;99.90;;;;;;5056144;28;20116;-73
2021/03/19 09:16:48;;;;;;;4.60;2.60;;;5.70;99.90;;;;;;5055394;28;20022;-74
2021/03/19 09:19:33;;;;;;;5.45;3.00;;;5.80;99.90;;;;;;5050085;28;20459;-75
2021/03/19 09:22:33;;;;;;;4.93;3.42;;;5.70;99.90;;;;;;5056051;28;20524;-71
2021/03/19 09:27:37;;;;;;;3.88;2.65;;;5.80;99.90;;;;;;5054332;28;20082;-74
2021/03/19 09:30:14;;;;;;;6.88;3.72;;;6.00;99.90;;;;;;5049296;28;20517;-73
2021/03/19 09:32:46;;;;;;;6.15;3.75;;;6.10;99.90;;;;;;5056018;28;20025;-73
2021/03/19 09:35:33;;;;;;;7.15;3.78;;;6.20;99.90;;;;;;5086900;28;20525;-74
2021/03/19 09:37:59;;;;;;;8.25;4.22;;;6.30;99.90;;;;;;5078190;28;20021;-72
2021/03/19 09:40:37;;;;;;;6.90;3.85;;;6.40;99.90;;;;;;5050366;28;20116;-76
2021/03/19 09:43:03;;;;;;;6.55;3.65;;;6.30;99.90;;;;;;5065459;28;20032;-76
2021/03/19 09:45:33;;;;;;;11.95;5.38;;;6.20;99.90;;;;;;5070667;28;20024;-73
2021/03/19 09:48:13;;;;;;;10.35;4.93;;;6.00;99.90;;;;;;5068376;28;20047;-75
2021/03/19 09:51:01;;;;;;;6.72;3.80;;;6.30;99.90;;;;;;5055505;28;20055;-74
2021/03/19 09:53:34;;;;;;;6.43;3.55;;;6.40;99.90;;;;;;5069350;28;20103;-75
2021/03/19 09:56:21;;;;;;;6.55;3.15;;;6.50;99.90;;;;;;5068459;28;20024;-76
2021/03/19 09:58:52;;;;;;;5.80;2.88;;;6.50;99.90;;;;;;5074049;28;20024;-75
2021/03/19 10:01:33;;;;;;;5.00;2.80;;;6.80;99.90;;;;;;5089787;28;20081;-75
2021/03/19 10:04:05;;;;;;;8.18;4.63;;;7.00;99.90;;;;;;5072191;28;20020;-74
2021/03/19 10:06:32;;;;;;;5.57;3.28;;;6.80;99.90;;;;;;5056433;28;20532;-77
2021/03/19 10:09:23;;;;;;;6.70;3.22;;;7.00;99.90;;;;;;5047692;28;20059;-76
2021/03/19 10:11:55;;;;;;;4.45;2.60;;;7.20;99.90;;;;;;5054073;28;20041;-75
2021/03/19 10:14:35;;;;;;;5.30;2.58;;;6.90;99.90;;;;;;5056294;28;20029;-75
2021/03/19 10:17:27;;;;;;;12.82;5.72;;;6.90;99.90;;;;;;5050522;28;20036;-76
2021/03/19 10:20:11;;;;;;;11.23;5.03;;;6.70;99.90;;;;;;5049564;28;20048;-76
2021/03/19 10:22:43;;;;;;;;;;;6.80;99.90;;;;;;5051110;28;20029;-75
2021/03/19 10:25:32;;;;;;;10.38;5.90;;;6.80;99.90;;;;;;5061135;28;19908;-76
2021/03/19 10:28:01;;;;;;;23.77;12.13;;;7.00;99.90;;;;;;5054876;28;20112;-75
2021/03/19 10:30:32;;;;;;;22.92;11.05;;;6.50;99.90;;;;;;5052131;28;20024;-76
2021/03/19 10:33:05;;;;;;;16.48;8.32;;;6.50;99.90;;;;;;5048059;28;20186;-77
2021/03/19 10:35:40;;;;;;;10.80;6.43;;;7.10;99.90;;;;;;5048691;28;20031;-76
2021/03/19 10:38:07;;;;;;;9.25;5.22;;;7.40;99.90;;;;;;5051758;28;20033;-76
2021/03/19 10:40:38;;;;;;;7.22;4.15;;;7.40;99.90;;;;;;5066141;28;20030;-76
2021/03/19 10:43:20;;;;;;;4.93;3.08;;;7.10;99.90;;;;;;5052038;28;20025;-77
2021/03/19 10:46:24;;;;;;;4.55;2.72;;;7.30;99.90;;;;;;5056524;28;20160;-75
2021/03/19 10:48:57;;;;;;;5.35;3.20;;;7.60;99.90;;;;;;5045548;28;20032;-76
2021/03/19 10:51:28;;;;;;;4.50;2.55;;;7.70;99.90;;;;;;5045582;28;20025;-77
2021/03/19 10:53:59;;;;;;;3.60;2.53;;;7.70;99.90;;;;;;5046568;28;20380;-77
2021/03/19 10:56:28;;;;;;;3.70;2.70;;;7.60;99.90;;;;;;5048157;28;20489;-76
2021/03/19 10:59:10;;;;;;;2.67;2.03;;;7.50;99.90;;;;;;5051944;28;20033;-76
2021/03/19 11:01:38;;;;;;;5.97;2.92;;;7.80;99.90;;;;;;5065623;28;20533;-75
2021/03/19 11:04:34;;;;;;;6.22;3.63;;;7.80;99.90;;;;;;5058517;28;20251;-73
2021/03/19 11:07:19;;;;;;;3.50;2.35;;;7.80;99.90;;;;;;5058847;28;20564;-72
2021/03/19 11:10:16;;;;;;;4.55;3.03;;;8.00;99.90;;;;;;5048437;28;20025;-74
2021/03/19 11:12:48;;;;;;;5.25;3.30;;;8.10;99.90;;;;;;5048509;28;20491;-75
2021/03/19 11:15:29;;;;;;;14.60;8.05;;;8.10;99.90;;;;;;5047923;28;20020;-74
2021/03/19 11:18:27;;;;;;;10.38;5.95;;;8.00;99.90;;;;;;5057648;28;20029;-76
2021/03/19 11:20:55;;;;;;;9.88;6.13;;;8.10;99.90;;;;;;5061125;28;20086;-73
2021/03/19 11:23:28;;;;;;;8.30;4.35;;;8.00;99.90;;;;;;5067717;28;20086;-74
2021/03/19 11:25:55;;;;;;;4.93;3.67;;;8.20;99.90;;;;;;5066715;28;20040;-74
2021/03/19 11:28:39;;;;;;;7.18;4.68;;;8.20;99.90;;;;;;5067703;28;20027;-76
2021/03/19 11:31:22;;;;;;;5.10;4.07;;;8.20;99.90;;;;;;5060236;28;20013;-76
2021/03/19 11:34:03;;;;;;;6.75;4.93;;;8.40;99.90;;;;;;5047340;28;20388;-75
2021/03/19 11:36:53;;;;;;;3.78;3.38;;;8.10;99.90;;;;;;5047704;28;20032;-77
2021/03/19 11:39:39;;;;;;;5.65;3.88;;;8.30;99.90;;;;;;5071924;28;20032;-77
2021/03/19 11:42:08;;;;;;;6.35;2.90;;;8.00;99.90;;;;;;5087371;28;20051;-76
2021/03/19 11:44:37;;;;;;;4.82;3.33;;;8.00;99.90;;;;;;5047980;28;20469;-76
2021/03/19 11:47:20;;;;;;;4.03;3.00;;;8.00;99.90;;;;;;5046899;28;20059;-77
2021/03/19 11:49:49;;;;;;;6.63;4.70;;;8.10;99.90;;;;;;5047835;28;20550;-77
2021/03/19 11:52:20;;;;;;;5.75;4.15;;;7.90;99.90;;;;;;5046502;28;20402;-78
2021/03/19 11:54:48;;;;;;;6.47;4.00;;;7.80;99.90;;;;;;5050041;28;20519;-76
2021/03/19 11:57:17;;;;;;;8.80;4.03;;;7.80;99.90;;;;;;5061762;28;20386;-78
2021/03/19 11:59:42;;;;;;;6.03;3.80;;;7.80;99.90;;;;;;5049108;28;20033;-78
2021/03/19 12:02:28;;;;;;;5.40;3.97;;;7.70;99.90;;;;;;5051801;28;20060;-76
2021/03/19 12:04:55;;;;;;;5.38;3.67;;;7.60;99.90;;;;;;5058221;28;20024;-76
2021/03/19 12:07:24;;;;;;;7.03;4.78;;;7.80;99.90;;;;;;5048346;28;20048;-76
2021/03/19 12:09:51;;;;;;;6.15;4.35;;;7.80;99.90;;;;;;5064880;28;20498;-74
2021/03/19 12:12:22;;;;;;;5.88;4.38;;;8.20;99.90;;;;;;5046685;28;20025;-73
2021/03/19 12:14:50;;;;;;;6.53;4.30;;;8.60;99.90;;;;;;5044694;28;20025;-75
2021/03/19 12:17:17;;;;;;;4.78;3.47;;;8.40;99.90;;;;;;5045121;28;20029;-74
2021/03/19 12:19:45;;;;;;;4.88;2.90;;;8.30;99.90;;;;;;5045180;28;20542;-75
2021/03/19 12:22:14;;;;;;;3.78;3.00;;;8.50;99.90;;;;;;5052463;28;20390;-79
2021/03/19 12:24:39;;;;;;;4.65;3.97;;;8.60;99.90;;;;;;5052028;28;20112;-77
2021/03/19 12:27:05;;;;;;;5.53;3.25;;;8.20;99.90;;;;;;5046660;28;20167;-76
2021/03/19 12:29:32;;;;;;;6.32;4.60;;;8.30;99.90;;;;;;5046584;28;20115;-74
2021/03/19 12:32:00;;;;;;;6.93;4.50;;;8.10;99.90;;;;;;5052097;28;20028;-77
2021/03/19 12:34:27;;;;;;;10.50;6.00;;;8.10;99.90;;;;;;5064985;28;20020;-76
2021/03/19 12:36:52;;;;;;;10.52;5.88;;;8.00;99.90;;;;;;5069589;28;20024;-79
2021/03/19 12:39:21;;;;;;;8.48;5.97;;;8.10;99.90;;;;;;5070168;28;20379;-73
2021/03/19 12:41:46;;;;;;;8.10;5.30;;;8.40;99.90;;;;;;5085161;28;20031;-74
2021/03/19 12:44:13;;;;;;;7.25;4.45;;;8.60;99.90;;;;;;5077790;28;20028;-73
2021/03/19 12:46:39;;;;;;;5.68;3.78;;;9.10;99.90;;;;;;5065888;28;20025;-75
2021/03/19 12:49:05;;;;;;;7.90;4.85;;;9.20;99.90;;;;;;5086039;28;20028;-75
2021/03/19 12:51:32;;;;;;;9.13;5.45;;;9.10;99.90;;;;;;5081706;28;20026;-74
2021/03/19 12:53:59;;;;;;;6.35;4.70;;;9.30;99.90;;;;;;5085986;28;20031;-75
2021/03/19 12:56:25;;;;;;;7.47;4.35;;;9.40;99.90;;;;;;5086116;28;20028;-73
2021/03/19 12:58:52;;;;;;;8.25;4.75;;;9.50;99.90;;;;;;5068985;28;20112;-75
2021/03/19 13:01:20;;;;;;;6.30;4.30;;;9.70;99.90;;;;;;5064947;28;20390;-74
2021/03/19 13:03:50;;;;;;;4.85;3.83;;;9.80;99.90;;;;;;5064642;28;20024;-74
2021/03/19 13:06:18;;;;;;;5.47;3.35;;;10.20;99.90;;;;;;5064611;28;20020;-73
2021/03/19 13:08:44;;;;;;;7.53;4.00;;;10.50;99.60;;;;;;5063157;28;20032;-73
2021/03/19 13:11:11;;;;;;;4.72;3.17;;;10.20;99.00;;;;;;5048094;28;20033;-73
2021/03/19 13:13:37;;;;;;;6.57;4.10;;;10.50;98.10;;;;;;5054161;28;20025;-78
2021/03/19 13:16:05;;;;;;;5.22;3.42;;;10.20;97.80;;;;;;5065036;28;20027;-75
2021/03/19 13:18:33;;;;;;;5.53;3.47;;;10.30;98.70;;;;;;5068615;28;20052;-75
2021/03/19 13:21:00;;;;;;;7.03;3.97;;;10.60;99.50;;;;;;5066086;28;20024;-69
2021/03/19 13:23:27;;;;;;;5.80;3.60;;;10.60;98.10;;;;;;5067650;28;20024;-70
2021/03/19 13:25:54;;;;;;;5.55;2.90;;;10.90;97.80;;;;;;5058957;28;20498;-69
2021/03/19 13:28:20;;;;;;;8.68;4.05;;;11.20;97.30;;;;;;5059960;28;20521;-70
2021/03/19 13:30:49;;;;;;;7.15;3.85;;;11.10;97.40;;;;;;5055769;28;20050;-69
2021/03/19 13:33:17;;;;;;;7.38;4.25;;;11.10;96.80;;;;;;5054529;28;20032;-71
2021/03/19 13:35:51;;;;;;;6.45;3.70;;;11.20;96.50;;;;;;5067953;28;20025;-69
2021/03/19 13:38:18;;;;;;;;;;;11.40;96.30;;;;;;5059580;28;20021;-70
2021/03/19 13:40:46;;;;;;;20.10;9.40;;;11.30;95.90;;;;;;5063631;28;20405;-69
2021/03/19 13:43:16;;;;;;;14.65;7.85;;;11.10;96.60;;;;;;5057602;28;20041;-68